Leland, Michigan
Current Conditions -  °F | °C
As of 4:06 AM on Sunday 23 Nov 2014 (Local Time) from KTVC Reporting Station
Haze Haze  
Wind Chill: 40°   Ceiling: 600
Heat Index: 43°   Visibility: 2.5mi
Dew Point: 40°   Wind: 5mph
Humidity: 89%   Direction: 130°SE
Pressure: 29.76"   Gusts: NA
Location:  45.02°N, 85.76°W
Report Text: KTVC 230906Z AUTO 13004KT 2 1/2SM BR OVC006 06/04 A2976 RMK AO2 T00610044
Loading
Personal Weather Stations






























Interactive Weather Map New forecast layout! Learn more

10-Day Weather Forecast

Advertisements
Track Severe Weather on mobile